CZFN/ZFN METAR and TAF weather

Enter ICAO airport designator
Station Type Date Time Source
CZFN METAR 2020/09/18 23:00 UTC NOAA

CZFN 182300Z 11004KT 080V170 15SM FEW180 BKN250 16/06 A2945 RMK AC1CI5 AC TR R0 AFT 1500/LAST STFD OBS/NEXT 211500 SLP979 DENSITY ALT 1100FT


Station Type Date Time Source
CZFN Decoded METAR 2020/09/18 23:00 UTC NOAA

Fort Norman Airport, Canada (CZFN) 64-55N 125-34W
Sep 18, 2020 - 07:00 PM EDT / 2020.09.18 2300 UTC
Wind: from the ESE (110 degrees) at 5 MPH (4 KT) (direction variable):0
Visibility: 15 mile(s):0
Sky conditions: mostly cloudy
Temperature: 60 F (16 C)
Dew Point: 42 F (6 C)
Relative Humidity: 51%
Pressure (altimeter): 29.45 in. Hg (997 hPa)
ob: CZFN 182300Z 11004KT 080V170 15SM FEW180 BKN250 16/06 A2945 RMK AC1CI5 AC TR R0 AFT 1500/LAST STFD OBS/NEXT 211500 SLP979 DENSITY ALT 1100FT
cycle: 23

Station Type Date Time Source
CZFN TAF UTC NOAA

Error!

Example: see airport list